• Join FlightAware (Why Join?)
  • Login
  • US Flag 
03:08AM EDT


 

Airport Tracker/Info


-or-


 

Live Flight TrackerFlight Track Log ✈ CHH7967 ✈ 17-Jul-2013 ✈ ZBAA / PEK - UIII / IKT

Flight Track Log - Related Links

Times and Time Zones

All times are in EDT time to prevent confusion due to time zone crossing. See the CHH7967 flight status page for this flight to view local times or setup timezone preferences in your user account.

Time Position Orientation Groundspeed Altitude Reporting Facility
EDT Latitude Longitude Course Direction KTS MPH feet Rate Location/Type
10:02PM 40.1530 116.5285 330° Northwest  Level Estimated
10:03PM 40.2258 116.4724 330° Northwest  Level Estimated
10:04PM 40.2986 116.4161 329° Northwest  Level Estimated
10:05PM 40.3714 116.3598 329° Northwest  Level Estimated
10:06PM 40.4441 116.3033 329° Northwest  Level Estimated
10:07PM 40.5168 116.2466 329° Northwest  Level Estimated
10:08PM 40.5895 116.1899 329° Northwest  Level Estimated
10:09PM 40.6622 116.1330 329° Northwest  Level Estimated
10:10PM 40.7348 116.0760 329° Northwest  Level Estimated
10:11PM 40.8074 116.0189 329° Northwest  Level Estimated
10:12PM 40.8800 115.9616 329° Northwest  Level Estimated
10:13PM 40.9525 115.9043 329° Northwest  Level Estimated
10:14PM 41.0251 115.8468 329° Northwest  Level Estimated
10:15PM 41.0975 115.7891 329° Northwest  Level Estimated
10:16PM 41.1700 115.7314 329° Northwest  Level Estimated
10:17PM 41.2424 115.6735 329° Northwest  Level Estimated
10:18PM 41.3148 115.6155 329° Northwest  Level Estimated
10:19PM 41.3872 115.5574 329° Northwest  Level Estimated
10:20PM 41.4596 115.4991 329° Northwest  Level Estimated
10:21PM 41.5319 115.4407 329° Northwest  Level Estimated
10:22PM 41.6042 115.3822 329° Northwest  Level Estimated
10:23PM 41.6764 115.3235 329° Northwest  Level Estimated
10:24PM 41.7487 115.2647 329° Northwest  Level Estimated
10:25PM 41.8209 115.2058 329° Northwest  Level Estimated
10:26PM 41.8930 115.1467 329° Northwest  Level Estimated
10:27PM 41.9652 115.0875 329° Northwest  Level Estimated
10:28PM 42.0373 115.0282 329° Northwest  Level Estimated
10:29PM 42.1094 114.9688 329° Northwest  Level Estimated
10:30PM 42.1814 114.9092 328° Northwest  Level Estimated
10:31PM 42.2534 114.8494 328° Northwest  Level Estimated
10:32PM 42.3254 114.7896 328° Northwest  Level Estimated
10:33PM 42.3974 114.7296 328° Northwest  Level Estimated
10:34PM 42.4693 114.6694 328° Northwest  Level Estimated
10:35PM 42.5412 114.6092 328° Northwest  Level Estimated
10:36PM 42.6130 114.5487 328° Northwest  Level Estimated
10:37PM 42.6849 114.4882 328° Northwest  Level Estimated
10:38PM 42.7566 114.4275 328° Northwest  Level Estimated
10:39PM 42.8284 114.3666 328° Northwest  Level Estimated
10:40PM 42.9001 114.3057 328° Northwest  Level Estimated
10:41PM 42.9718 114.2445 328° Northwest  Level Estimated
10:42PM 43.0435 114.1833 328° Northwest  Level Estimated
10:43PM 43.1151 114.1219 328° Northwest  Level Estimated
10:44PM 43.1867 114.0603 328° Northwest  Level Estimated
10:45PM 43.2583 113.9986 328° Northwest  Level Estimated
10:46PM 43.3298 113.9368 328° Northwest  Level Estimated
10:47PM 43.4013 113.8748 328° Northwest  Level Estimated
10:48PM 43.4728 113.8127 328° Northwest  Level Estimated
10:49PM 43.5442 113.7504 328° Northwest  Level Estimated
10:50PM 43.6156 113.6880 328° Northwest  Level Estimated
10:51PM 43.6870 113.6254 328° Northwest  Level Estimated
10:52PM 43.7583 113.5626 328° Northwest  Level Estimated
10:53PM 43.8296 113.4998 328° Northwest  Level Estimated
10:54PM 43.9009 113.4367 327° Northwest  Level Estimated
10:55PM 43.9721 113.3736 327° Northwest  Level Estimated
10:56PM 44.0433 113.3102 327° Northwest  Level Estimated
10:57PM 44.1145 113.2467 327° Northwest  Level Estimated
10:58PM 44.1856 113.1831 327° Northwest  Level Estimated
10:59PM 44.2567 113.1193 327° Northwest  Level Estimated
11:00PM 44.3277 113.0554 327° Northwest  Level Estimated
11:01PM 44.3987 112.9913 327° Northwest  Level Estimated
11:02PM 44.4697 112.9270 327° Northwest  Level Estimated
11:03PM 44.5406 112.8626 327° Northwest  Level Estimated
11:04PM 44.6116 112.7980 327° Northwest  Level Estimated
11:05PM 44.6824 112.7333 327° Northwest  Level Estimated
11:06PM 44.7533 112.6684 327° Northwest  Level Estimated
11:07PM 44.8241 112.6034 327° Northwest  Level Estimated
11:08PM 44.8948 112.5382 327° Northwest  Level Estimated
11:09PM 44.9655 112.4728 327° Northwest  Level Estimated
11:10PM 45.0362 112.4073 327° Northwest  Level Estimated
11:11PM 45.1069 112.3416 327° Northwest  Level Estimated
11:12PM 45.1775 112.2758 327° Northwest  Level Estimated
11:13PM 45.2481 112.2098 327° Northwest  Level Estimated
11:14PM 45.3186 112.1436 327° Northwest  Level Estimated
11:15PM 45.3891 112.0773 327° Northwest  Level Estimated
11:16PM 45.4595 112.0107 326° Northwest  Level Estimated
11:17PM 45.5299 111.9441 326° Northwest  Level Estimated
11:18PM 45.6003 111.8772 326° Northwest  Level Estimated
11:19PM 45.6707 111.8102 326° Northwest  Level Estimated
11:20PM 45.7585 111.7262 326° Northwest  Level Estimated
11:21PM 45.8464 111.6420 326° Northwest  Level Estimated
11:22PM 45.9341 111.5574 326° Northwest  Level Estimated
11:23PM 46.0218 111.4726 326° Northwest  Level Estimated
11:24PM 46.1094 111.3876 326° Northwest  Level Estimated
11:25PM 46.1970 111.3022 326° Northwest  Level Estimated
11:26PM 46.2845 111.2166 326° Northwest  Level Estimated
11:27PM 46.3719 111.1307 326° Northwest  Level Estimated
11:28PM 46.4592 111.0446 326° Northwest  Level Estimated
11:29PM 46.5465 110.9582 326° Northwest  Level Estimated
11:30PM 46.6338 110.8714 326° Northwest  Level Estimated
11:31PM 46.7209 110.7844 326° Northwest  Level Estimated
11:32PM 46.8080 110.6972 326° Northwest  Level Estimated
11:33PM 46.8951 110.6096 326° Northwest  Level Estimated
11:34PM 46.9821 110.5218 325° Northwest  Level Estimated
11:35PM 47.0690 110.4336 325° Northwest  Level Estimated
11:36PM 47.1558 110.3452 325° Northwest  Level Estimated
11:37PM 47.2425 110.2565 325° Northwest  Level Estimated
11:38PM 47.3292 110.1675 325° Northwest  Level Estimated
11:39PM 47.4159 110.0782 325° Northwest  Level Estimated
11:40PM 47.5024 109.9887 325° Northwest  Level Estimated
11:41PM 47.5889 109.8988 325° Northwest  Level Estimated
11:42PM 47.6753 109.8086 325° Northwest  Level Estimated
11:43PM 47.7617 109.7181 325° Northwest  Level Estimated
11:44PM 47.8480 109.6273 325° Northwest  Level Estimated
11:45PM 47.9342 109.5363 325° Northwest  Level Estimated
11:46PM 48.0203 109.4449 325° Northwest  Level Estimated
11:47PM 48.1063 109.3532 325° Northwest  Level Estimated
11:48PM 48.1923 109.2612 325° Northwest  Level Estimated
11:49PM 48.2783 109.1689 324° Northwest  Level Estimated
11:50PM 48.3641 109.0763 324° Northwest  Level Estimated
11:51PM 48.4498 108.9834 324° Northwest  Level Estimated
11:52PM 48.5355 108.8901 324° Northwest  Level Estimated
11:53PM 48.6212 108.7965 324° Northwest  Level Estimated
11:54PM 48.7067 108.7027 324° Northwest  Level Estimated
11:55PM 48.7921 108.6085 324° Northwest  Level Estimated
11:56PM 48.8775 108.5139 324° Northwest  Level Estimated
11:57PM 48.9628 108.4191 324° Northwest  Level Estimated
11:58PM 49.0481 108.3240 324° Northwest  Level Estimated
11:59PM 49.1332 108.2285 324° Northwest  Level Estimated
12:00AM 49.2183 108.1326 324° Northwest  Level Estimated
12:01AM 49.3033 108.0365 324° Northwest  Level Estimated
12:02AM 49.3882 107.9400 324° Northwest  Level Estimated
12:03AM 49.4730 107.8432 323° Northwest  Level Estimated
12:04AM 49.5578 107.7460 323° Northwest  Level Estimated
12:05AM 49.6424 107.6486 323° Northwest  Level Estimated
12:06AM 49.7270 107.5507 323° Northwest  Level Estimated
12:07AM 49.8115 107.4526 323° Northwest  Level Estimated
12:08AM 49.8959 107.3540 323° Northwest  Level Estimated
12:09AM 49.9803 107.2552 323° Northwest  Level Estimated
12:10AM 50.0645 107.1560 323° Northwest  Level Estimated
12:11AM 50.1487 107.0564 323° Northwest  Level Estimated
12:12AM 50.2328 106.9565 323° Northwest  Level Estimated
12:13AM 50.3168 106.8562 323° Northwest  Level Estimated
12:14AM 50.4007 106.7556 323° Northwest  Level Estimated
12:15AM 50.4845 106.6547 323° Northwest  Level Estimated
12:16AM 50.5682 106.5533 322° Northwest  Level Estimated
12:17AM 50.6519 106.4517 322° Northwest  Level Estimated
12:18AM 50.7354 106.3496 322° Northwest  Level Estimated
12:19AM 50.8189 106.2472 322° Northwest  Level Estimated
12:20AM 50.9023 106.1444 322° Northwest  Level Estimated
12:21AM 50.9856 106.0413 322° Northwest  Level Estimated
12:22AM 51.0688 105.9377 322° Northwest  Level Estimated
12:23AM 51.1519 105.8338 322° Northwest  Level Estimated
12:24AM 51.2349 105.7296 322° Northwest  Level Estimated
12:25AM 51.3178 105.6249 322° Northwest  Level Estimated
12:26AM 51.4006 105.5199 322° Northwest  Level Estimated
12:27AM 51.4833 105.4145 322° Northwest  Level Estimated
12:28AM 51.5660 105.3087 322° Northwest  Level Estimated
12:29AM 51.6485 105.2025 321° Northwest  Level Estimated
12:30AM 51.7310 105.0960 321° Northwest  Level Estimated
12:31AM 51.8133 104.9890 321° Northwest  Level Estimated
12:32AM 51.8956 104.8817 321° Northwest  Level Estimated
12:33AM 51.9777 104.7739 321° Northwest  Level Estimated
12:34AM 52.0598 104.6658 321° Northwest  Level Estimated
12:35AM 52.1417 104.5573 321° Northwest  Level Estimated
12:36AM 52.2236 104.4484 321° Northwest  Level Estimated
12:37AM 52.2680 104.3890 321° Northwest  Level Estimated
12:38AM 52.2680 104.3890 237° Southwest  Level Estimated
12:39AM 52.2680 104.3890 237° Southwest  Level Estimated
12:40AM 52.2680 104.3890 237° Southwest  Level Estimated
12:41AM 52.2680 104.3890 237° Southwest  Level Estimated
12:42AM 52.2680 104.3890 237° Southwest  Level Estimated
12:43AM 52.2680 104.3890 237° Southwest  Level Estimated
12:44AM 52.2680 104.3890 237° Southwest  Level Estimated
12:45AM 52.2680 104.3890 237° Southwest  Level Estimated
12:46AM 52.2680 104.3890 237° Southwest  Level Estimated
12:47AM 52.2680 104.3890 237° Southwest  Level Estimated
12:48AM 52.2680 104.3890 237° Southwest  Level Estimated
12:49AM 52.2680 104.3890 237° Southwest  Level Estimated
12:49AM 51.2200 105.5390 237° Southwest 371 427 24,700  Level FlightAware
12:50AM 52.2680 104.3890 237° Southwest  Level Estimated
12:50AM 51.3060 105.4490 327° Northwest 349 402 22,200  Level FlightAware
12:51AM 52.2680 104.3890 237° Southwest  Level Estimated
12:51AM 51.3620 105.3890 326° Northwest 339 390 21,000  Level FlightAware
12:52AM 51.4530 105.2930 327° Northwest 328 377 19,100 -1,380 Descending FlightAware
12:53AM 51.5000 105.2430 326° Northwest 307 353 18,500 -900 Descending FlightAware
12:54AM 51.5640 105.1750 327° Northwest 307 353 17,800 -1,380 Descending FlightAware
12:54AM 51.6120 105.1330 331° Northwest 306 352 16,600 -1,800 Descending FlightAware
12:55AM 51.6540 105.1000 334° Northwest 299 344 15,500 -1,860 Descending FlightAware
12:56AM 51.7060 105.0580 333° Northwest 293 337 14,100 -2,040 Descending FlightAware
12:57AM 51.7550 105.0170 333° Northwest 292 336 12,700 -2,100 Descending FlightAware
12:57AM 51.8150 104.9680 333° Northwest 282 325 11,200 -1,860 Descending FlightAware
12:58AM 51.8610 104.9310 334° Northwest 274 315 10,100 -1,680 Descending FlightAware
12:58AM 51.8970 104.9180 347° North 269 310 9,200 -1,560 Descending FlightAware
12:59AM 51.9300 104.9070 348° North 259 298 8,700 -1,080 Descending FlightAware
12:59AM 51.9460 104.8950 335° Northwest 246 283 8,500 -840 Descending FlightAware
01:00AM 51.9730 104.8610 322° Northwest 235 270 8,100 -900 Descending FlightAware
01:00AM 51.9880 104.8400 319° Northwest 224 258 7,800 -900 Descending FlightAware
01:00AM 52.0130 104.8130 326° Northwest 206 237 7,400 -960 Descending FlightAware
01:01AM 52.0350 104.7890 326° Northwest 193 222 6,900 -960 Descending FlightAware
01:01AM 52.0580 104.7690 332° Northwest 185 213 6,500 -780 Descending FlightAware
01:02AM 52.0890 104.7430 333° Northwest 173 199 6,000 -720 Descending FlightAware
01:03AM 52.1080 104.7270 333° Northwest 169 194 5,700 -540 Descending FlightAware
01:03AM 52.1280 104.7110 334° Northwest 169 194 5,500 -540 Descending FlightAware
01:04AM 52.1500 104.6930 333° Northwest 171 197 5,200 -540 Descending FlightAware
01:04AM 52.1660 104.6800 334° Northwest 170 196 5,000 -480 Descending FlightAware
01:04AM 52.1830 104.6660 333° Northwest 176 203 4,800 -480 Descending FlightAware
01:05AM 52.2010 104.6400 318° Northwest 170 196 4,600 -300 Descending FlightAware
01:05AM 52.2110 104.6060 296° West 162 186 4,500 -540 Descending FlightAware
01:06AM 52.2190 104.5760 294° West 148 170 4,100 -780 Descending FlightAware
01:06AM 52.2250 104.5520 292° West 146 168 3,800 -660 Descending FlightAware
01:07AM 52.2310 104.5310 295° West 145 167 3,600 -900 Descending FlightAware
01:07AM 52.2390 104.5010 294° West 146 168 3,100 -900 Descending FlightAware
01:08AM 52.2460 104.4750 294° West 146 168 2,800 -720 Descending FlightAware
01:08AM 52.2530 104.4490 294° West 147 169 2,400 -720 Descending FlightAware
01:09AM 52.2580 104.4300 293° West 141 162 2,200 -240 Descending FlightAware
01:09AM 52.2630 104.4080 290° West 141 162 2,200  Level FlightAware
01:09AM 52.2690 104.3870 295° West 141 162 -8,820 Descending FlightAware
01:10AM 52.2720 104.3760 294° West 141 162  Level FlightAware
01:10AM 52.2710 104.3750 211° Southwest 141 162  Level FlightAware
01:11AM 52.2700 104.3730 231° Southwest 141 162  Level FlightAware
01:12AM 52.2700 104.3720 270° West 141 162  Level FlightAware
01:12AM 52.2720 104.3970 83° East 141 162  Level FlightAware
01:12AM 52.2690 104.3710 259° West 141 162  Level FlightAware
01:13AM 52.2670 104.3490 262° West 141 162  Level FlightAware
01:13AM 52.2700 104.3690 76° East 141 162  Level FlightAware
01:14AM 52.2700 104.3660 270° West 141 162  Level FlightAware
01:14AM 52.2710 104.3650 329° Northwest 141 162  Level FlightAware
01:15AM 52.2580 104.3610 191° South 141 162  Level FlightAware
01:16AM 52.2870 104.3680 North 141 162  Level FlightAware
01:19AM 52.2680 104.3890 146° Southeast  Level Estimated
01:20AM 52.2680 104.3890 237° Southwest  Level Estimated
01:21AM 52.2680 104.3890 237° Southwest  Level Estimated